sensor_id;sensor_type;location;lat;lon;timestamp;pressure;altitude;pressure_sealevel;temperature;humidity
37710;BME280;60223;34.854;-92.408;2023-02-28T00:35:20;99648.72;;;25.49;27.18
37710;BME280;60223;34.854;-92.408;2023-02-28T00:37:47;99658.25;;;24.94;27.82
37710;BME280;60223;34.854;-92.408;2023-02-28T00:40:12;99658.40;;;25.28;28.09
37710;BME280;60223;34.854;-92.408;2023-02-28T00:42:37;99660.58;;;25.27;28.28
37710;BME280;60223;34.854;-92.408;2023-02-28T00:45:02;99662.47;;;25.19;28.29
37710;BME280;60223;34.854;-92.408;2023-02-28T00:47:28;99664.11;;;25.26;28.46
37710;BME280;60223;34.854;-92.408;2023-02-28T00:49:53;99666.96;;;24.93;28.68
37710;BME280;60223;34.854;-92.408;2023-02-28T00:52:19;99667.75;;;24.87;28.69
37710;BME280;60223;34.854;-92.408;2023-02-28T00:54:45;99667.69;;;25.24;28.63
37710;BME280;60223;34.854;-92.408;2023-02-28T00:57:11;99675.57;;;25.07;28.80
37710;BME280;60223;34.854;-92.408;2023-02-28T00:59:34;99679.42;;;24.92;28.44
37710;BME280;60223;34.854;-92.408;2023-02-28T01:02:02;99680.44;;;25.77;27.75
37710;BME280;60223;34.854;-92.408;2023-02-28T01:04:27;99684.61;;;25.23;28.52
37710;BME280;60223;34.854;-92.408;2023-02-28T01:06:53;99684.44;;;25.25;28.43
37710;BME280;60223;34.854;-92.408;2023-02-28T01:09:17;99682.15;;;25.55;28.34
37710;BME280;60223;34.854;-92.408;2023-02-28T01:11:43;99682.11;;;25.40;28.07
37710;BME280;60223;34.854;-92.408;2023-02-28T01:14:11;99682.05;;;26.07;27.41
37710;BME280;60223;34.854;-92.408;2023-02-28T01:16:33;99683.08;;;24.98;28.08
37710;BME280;60223;34.854;-92.408;2023-02-28T01:19:01;99684.14;;;25.47;27.97
37710;BME280;60223;34.854;-92.408;2023-02-28T01:21:27;99684.72;;;25.15;28.15
37710;BME280;60223;34.854;-92.408;2023-02-28T01:23:52;99691.19;;;25.42;28.30
37710;BME280;60223;34.854;-92.408;2023-02-28T01:26:19;99694.35;;;25.17;28.44
37710;BME280;60223;34.854;-92.408;2023-02-28T01:28:42;99694.66;;;25.01;28.69
37710;BME280;60223;34.854;-92.408;2023-02-28T01:31:09;99699.39;;;25.31;28.84
37710;BME280;60223;34.854;-92.408;2023-02-28T01:33:35;99703.67;;;25.19;28.77
37710;BME280;60223;34.854;-92.408;2023-02-28T01:36:03;99704.42;;;25.14;28.80
37710;BME280;60223;34.854;-92.408;2023-02-28T01:38:25;99702.79;;;25.10;29.10
37710;BME280;60223;34.854;-92.408;2023-02-28T01:40:51;99706.29;;;24.96;29.05
37710;BME280;60223;34.854;-92.408;2023-02-28T01:43:22;99705.68;;;25.17;29.17
37710;BME280;60223;34.854;-92.408;2023-02-28T01:45:42;99706.98;;;24.72;29.38
37710;BME280;60223;34.854;-92.408;2023-02-28T01:48:08;99713.52;;;25.16;29.18
37710;BME280;60223;34.854;-92.408;2023-02-28T01:50:38;99721.78;;;23.19;31.18
37710;BME280;60223;34.854;-92.408;2023-02-28T01:53:02;99721.14;;;21.50;33.02
37710;BME280;60223;34.854;-92.408;2023-02-28T01:55:25;99721.82;;;21.24;34.18
37710;BME280;60223;34.854;-92.408;2023-02-28T01:57:52;99728.12;;;23.46;30.98
37710;BME280;60223;34.854;-92.408;2023-02-28T02:00:18;99721.15;;;21.32;33.56
37710;BME280;60223;34.854;-92.408;2023-02-28T02:02:43;99720.98;;;21.04;34.01
37710;BME280;60223;34.854;-92.408;2023-02-28T02:05:10;99725.51;;;21.50;33.92
37710;BME280;60223;34.854;-92.408;2023-02-28T02:07:35;99732.59;;;21.35;34.35
37710;BME280;60223;34.854;-92.408;2023-02-28T02:10:05;99734.93;;;21.67;34.40
37710;BME280;60223;34.854;-92.408;2023-02-28T02:12:27;99737.97;;;21.17;34.47
37710;BME280;60223;34.854;-92.408;2023-02-28T02:14:59;99742.01;;;21.39;34.48
37710;BME280;60223;34.854;-92.408;2023-02-28T02:17:25;99746.17;;;21.50;34.63
37710;BME280;60223;34.854;-92.408;2023-02-28T02:19:57;99751.11;;;21.36;34.82
37710;BME280;60223;34.854;-92.408;2023-02-28T02:27:08;99757.97;;;21.18;35.00
37710;BME280;60223;34.854;-92.408;2023-02-28T02:32:06;99760.40;;;21.34;34.65
37710;BME280;60223;34.854;-92.408;2023-02-28T02:34:29;99760.66;;;21.61;34.33
37710;BME280;60223;34.854;-92.408;2023-02-28T02:36:41;99759.18;;;21.27;34.59
37710;BME280;60223;34.854;-92.408;2023-02-28T02:39:12;99759.22;;;21.52;34.09
37710;BME280;60223;34.854;-92.408;2023-02-28T02:41:36;99764.98;;;21.46;34.41
37710;BME280;60223;34.854;-92.408;2023-02-28T02:44:02;99768.58;;;21.33;34.31
37710;BME280;60223;34.854;-92.408;2023-02-28T02:46:26;99772.65;;;21.70;34.22
37710;BME280;60223;34.854;-92.408;2023-02-28T02:48:50;99769.69;;;21.33;34.35
37710;BME280;60223;34.854;-92.408;2023-02-28T02:51:18;99773.41;;;21.31;34.63
37710;BME280;60223;34.854;-92.408;2023-02-28T02:53:46;99780.90;;;21.56;34.40
37710;BME280;60223;34.854;-92.408;2023-02-28T02:56:07;99786.37;;;21.72;34.19
37710;BME280;60223;34.854;-92.408;2023-02-28T02:58:36;99787.01;;;21.35;34.57
37710;BME280;60223;34.854;-92.408;2023-02-28T03:00:58;99788.47;;;21.44;34.02
37710;BME280;60223;34.854;-92.408;2023-02-28T03:03:23;99793.18;;;21.21;34.08
37710;BME280;60223;34.854;-92.408;2023-02-28T03:05:50;99795.03;;;21.37;33.90
37710;BME280;60223;34.854;-92.408;2023-02-28T03:08:15;99797.88;;;20.90;34.35
37710;BME280;60223;34.854;-92.408;2023-02-28T03:10:43;99795.90;;;21.37;33.95
37710;BME280;60223;34.854;-92.408;2023-02-28T03:13:23;99797.88;;;21.26;34.14
37710;BME280;60223;34.854;-92.408;2023-02-28T03:15:37;99802.92;;;21.77;34.10
37710;BME280;60223;34.854;-92.408;2023-02-28T03:18:02;99804.81;;;21.35;34.28
37710;BME280;60223;34.854;-92.408;2023-02-28T03:20:31;99800.55;;;21.59;33.97
37710;BME280;60223;34.854;-92.408;2023-02-28T03:22:57;99797.33;;;21.78;33.66
37710;BME280;60223;34.854;-92.408;2023-02-28T03:25:20;99796.09;;;22.16;33.52
37710;BME280;60223;34.854;-92.408;2023-02-28T03:27:41;99799.45;;;21.93;33.50
37710;BME280;60223;34.854;-92.408;2023-02-28T03:30:10;99804.96;;;22.27;33.35
37710;BME280;60223;34.854;-92.408;2023-02-28T03:32:33;99811.19;;;22.01;33.32
37710;BME280;60223;34.854;-92.408;2023-02-28T03:35:01;99812.75;;;22.21;33.11
37710;BME280;60223;34.854;-92.408;2023-02-28T03:37:23;99817.74;;;22.01;33.34
37710;BME280;60223;34.854;-92.408;2023-02-28T03:39:52;99820.49;;;21.63;33.47
37710;BME280;60223;34.854;-92.408;2023-02-28T03:42:14;99821.07;;;21.78;33.56
37710;BME280;60223;34.854;-92.408;2023-02-28T03:44:44;99815.33;;;22.38;33.37
37710;BME280;60223;34.854;-92.408;2023-02-28T03:47:09;99810.01;;;21.59;33.94
37710;BME280;60223;34.854;-92.408;2023-02-28T03:49:34;99814.26;;;22.00;33.19
37710;BME280;60223;34.854;-92.408;2023-02-28T03:51:57;99818.36;;;21.58;33.42
37710;BME280;60223;34.854;-92.408;2023-02-28T03:54:25;99818.56;;;21.83;33.04
37710;BME280;60223;34.854;-92.408;2023-02-28T03:56:52;99812.99;;;21.46;32.91
37710;BME280;60223;34.854;-92.408;2023-02-28T03:59:17;99809.34;;;21.18;33.35
37710;BME280;60223;34.854;-92.408;2023-02-28T04:01:41;99815.65;;;21.63;33.05
37710;BME280;60223;34.854;-92.408;2023-02-28T04:04:05;99816.74;;;21.43;33.59
37710;BME280;60223;34.854;-92.408;2023-02-28T04:06:30;99823.38;;;21.26;33.34
37710;BME280;60223;34.854;-92.408;2023-02-28T04:08:56;99825.82;;;21.19;33.71
37710;BME280;60223;34.854;-92.408;2023-02-28T04:11:27;99827.14;;;21.38;33.33
37710;BME280;60223;34.854;-92.408;2023-02-28T04:13:48;99821.21;;;21.45;33.43
37710;BME280;60223;34.854;-92.408;2023-02-28T04:16:12;99813.11;;;21.10;33.40
37710;BME280;60223;34.854;-92.408;2023-02-28T04:18:39;99810.28;;;21.14;33.54
37710;BME280;60223;34.854;-92.408;2023-02-28T04:21:05;99814.27;;;21.03;33.85
37710;BME280;60223;34.854;-92.408;2023-02-28T04:23:30;99815.99;;;20.91;33.74
37710;BME280;60223;34.854;-92.408;2023-02-28T04:25:58;99814.17;;;21.20;33.96
37710;BME280;60223;34.854;-92.408;2023-02-28T04:28:21;99820.25;;;20.75;34.14
37710;BME280;60223;34.854;-92.408;2023-02-28T04:30:46;99822.99;;;21.10;34.37
37710;BME280;60223;34.854;-92.408;2023-02-28T04:33:13;99824.01;;;21.07;33.97
37710;BME280;60223;34.854;-92.408;2023-02-28T04:35:38;99827.92;;;21.15;34.01
37710;BME280;60223;34.854;-92.408;2023-02-28T04:38:04;99830.22;;;20.64;34.12
37710;BME280;60223;34.854;-92.408;2023-02-28T04:40:28;99828.35;;;21.10;34.16
37710;BME280;60223;34.854;-92.408;2023-02-28T04:42:55;99828.82;;;21.23;34.04
37710;BME280;60223;34.854;-92.408;2023-02-28T04:45:21;99830.90;;;20.73;34.28
37710;BME280;60223;34.854;-92.408;2023-02-28T04:47:45;99833.86;;;20.78;34.39
37710;BME280;60223;34.854;-92.408;2023-02-28T04:50:14;99840.20;;;20.84;34.54
37710;BME280;60223;34.854;-92.408;2023-02-28T04:52:38;99838.88;;;20.90;34.45
37710;BME280;60223;34.854;-92.408;2023-02-28T04:55:05;99836.89;;;20.36;34.26
37710;BME280;60223;34.854;-92.408;2023-02-28T04:57:30;99835.13;;;20.93;33.92
37710;BME280;60223;34.854;-92.408;2023-02-28T04:59:55;99838.28;;;20.62;34.48
37710;BME280;60223;34.854;-92.408;2023-02-28T05:02:20;99841.92;;;21.08;34.18
37710;BME280;60223;34.854;-92.408;2023-02-28T05:04:46;99852.51;;;20.81;34.59
37710;BME280;60223;34.854;-92.408;2023-02-28T05:07:12;99854.93;;;20.90;34.29
37710;BME280;60223;34.854;-92.408;2023-02-28T05:09:38;99856.84;;;20.83;34.12
37710;BME280;60223;34.854;-92.408;2023-02-28T05:12:02;99858.92;;;21.15;34.26
37710;BME280;60223;34.854;-92.408;2023-02-28T05:14:29;99865.65;;;20.82;34.44
37710;BME280;60223;34.854;-92.408;2023-02-28T05:16:54;99870.65;;;20.88;34.82
37710;BME280;60223;34.854;-92.408;2023-02-28T05:19:20;99867.89;;;20.71;34.46
37710;BME280;60223;34.854;-92.408;2023-02-28T05:21:51;99868.37;;;21.10;34.61
37710;BME280;60223;34.854;-92.408;2023-02-28T05:24:12;99872.22;;;21.25;34.43
37710;BME280;60223;34.854;-92.408;2023-02-28T05:26:40;99879.80;;;21.29;34.32
37710;BME280;60223;34.854;-92.408;2023-02-28T05:29:03;99888.22;;;21.20;34.40
37710;BME280;60223;34.854;-92.408;2023-02-28T05:31:29;99885.70;;;21.18;34.47
37710;BME280;60223;34.854;-92.408;2023-02-28T05:33:55;99878.71;;;21.46;34.12
37710;BME280;60223;34.854;-92.408;2023-02-28T05:36:20;99877.07;;;21.31;34.24
37710;BME280;60223;34.854;-92.408;2023-02-28T05:38:46;99879.64;;;21.42;33.83
37710;BME280;60223;34.854;-92.408;2023-02-28T05:41:11;99877.50;;;21.57;33.90
37710;BME280;60223;34.854;-92.408;2023-02-28T05:43:38;99872.87;;;21.13;33.94
37710;BME280;60223;34.854;-92.408;2023-02-28T05:46:05;99878.52;;;21.66;33.75
37710;BME280;60223;34.854;-92.408;2023-02-28T05:48:28;99879.40;;;21.11;34.06
37710;BME280;60223;34.854;-92.408;2023-02-28T05:50:55;99875.72;;;21.73;33.57
37710;BME280;60223;34.854;-92.408;2023-02-28T05:53:20;99877.95;;;21.60;33.38
37710;BME280;60223;34.854;-92.408;2023-02-28T05:55:45;99878.93;;;21.40;33.36
37710;BME280;60223;34.854;-92.408;2023-02-28T05:58:11;99881.20;;;21.81;33.14
37710;BME280;60223;34.854;-92.408;2023-02-28T06:00:36;99891.97;;;21.83;32.79
37710;BME280;60223;34.854;-92.408;2023-02-28T06:03:02;99892.84;;;21.55;33.32
37710;BME280;60223;34.854;-92.408;2023-02-28T06:05:28;99895.88;;;21.95;33.16
37710;BME280;60223;34.854;-92.408;2023-02-28T06:07:54;99894.10;;;21.58;33.01
37710;BME280;60223;34.854;-92.408;2023-02-28T06:10:19;99892.32;;;21.64;33.17
37710;BME280;60223;34.854;-92.408;2023-02-28T06:12:42;99894.23;;;21.95;32.81
37710;BME280;60223;34.854;-92.408;2023-02-28T06:15:14;99895.39;;;21.39;33.16
37710;BME280;60223;34.854;-92.408;2023-02-28T06:17:36;99901.43;;;21.45;33.07
37710;BME280;60223;34.854;-92.408;2023-02-28T06:20:02;99905.31;;;21.41;33.10
37710;BME280;60223;34.854;-92.408;2023-02-28T06:22:28;99912.32;;;21.08;33.00
37710;BME280;60223;34.854;-92.408;2023-02-28T06:24:51;99910.72;;;21.31;32.74
37710;BME280;60223;34.854;-92.408;2023-02-28T06:27:19;99919.74;;;21.15;33.33
37710;BME280;60223;34.854;-92.408;2023-02-28T06:29:44;99915.70;;;21.36;33.08
37710;BME280;60223;34.854;-92.408;2023-02-28T06:32:11;99918.72;;;21.32;33.11
37710;BME280;60223;34.854;-92.408;2023-02-28T06:34:34;99913.01;;;21.66;33.06
37710;BME280;60223;34.854;-92.408;2023-02-28T06:37:02;99913.11;;;21.03;32.96
37710;BME280;60223;34.854;-92.408;2023-02-28T06:39:26;99918.95;;;21.04;33.19
37710;BME280;60223;34.854;-92.408;2023-02-28T06:41:53;99915.59;;;21.64;33.12
37710;BME280;60223;34.854;-92.408;2023-02-28T06:44:19;99915.58;;;21.02;33.25
37710;BME280;60223;34.854;-92.408;2023-02-28T06:46:45;99911.78;;;21.45;32.81
37710;BME280;60223;34.854;-92.408;2023-02-28T06:49:10;99921.06;;;21.09;33.11
37710;BME280;60223;34.854;-92.408;2023-02-28T06:51:32;99925.15;;;21.36;33.06
37710;BME280;60223;34.854;-92.408;2023-02-28T06:54:01;99914.77;;;21.55;32.84
37710;BME280;60223;34.854;-92.408;2023-02-28T06:56:27;99920.36;;;21.34;32.96
37710;BME280;60223;34.854;-92.408;2023-02-28T06:58:52;99922.81;;;21.18;33.13
37710;BME280;60223;34.854;-92.408;2023-02-28T07:01:18;99930.63;;;20.96;33.19
37710;BME280;60223;34.854;-92.408;2023-02-28T07:03:41;99935.15;;;21.05;33.28
37710;BME280;60223;34.854;-92.408;2023-02-28T07:06:10;99935.26;;;20.84;32.96
37710;BME280;60223;34.854;-92.408;2023-02-28T07:08:36;99935.71;;;21.09;32.78
37710;BME280;60223;34.854;-92.408;2023-02-28T07:11:01;99944.77;;;20.59;33.20
37710;BME280;60223;34.854;-92.408;2023-02-28T07:13:27;99951.36;;;20.55;33.08
37710;BME280;60223;34.854;-92.408;2023-02-28T07:15:56;99952.42;;;21.07;33.03
37710;BME280;60223;34.854;-92.408;2023-02-28T07:18:15;99952.01;;;20.76;33.01
37710;BME280;60223;34.854;-92.408;2023-02-28T07:20:43;99955.63;;;20.80;33.20
37710;BME280;60223;34.854;-92.408;2023-02-28T07:23:09;99958.40;;;20.29;33.89
37710;BME280;60223;34.854;-92.408;2023-02-28T07:25:35;99954.66;;;21.03;32.88
37710;BME280;60223;34.854;-92.408;2023-02-28T07:28:00;99951.70;;;21.19;32.94
37710;BME280;60223;34.854;-92.408;2023-02-28T07:30:25;99953.49;;;20.54;33.51
37710;BME280;60223;34.854;-92.408;2023-02-28T07:32:52;99955.80;;;20.85;33.32
37710;BME280;60223;34.854;-92.408;2023-02-28T07:35:18;99948.08;;;20.86;33.26
37710;BME280;60223;34.854;-92.408;2023-02-28T07:37:43;99940.42;;;20.74;33.46
37710;BME280;60223;34.854;-92.408;2023-02-28T07:40:12;99937.17;;;20.61;33.19
37710;BME280;60223;34.854;-92.408;2023-02-28T07:42:35;99944.07;;;20.68;33.16
37710;BME280;60223;34.854;-92.408;2023-02-28T07:45:00;99948.80;;;20.70;33.41
37710;BME280;60223;34.854;-92.408;2023-02-28T07:47:26;99941.44;;;21.09;32.95
37710;BME280;60223;34.854;-92.408;2023-02-28T07:49:52;99939.30;;;20.68;33.22
37710;BME280;60223;34.854;-92.408;2023-02-28T07:52:17;99933.80;;;20.35;33.50
37710;BME280;60223;34.854;-92.408;2023-02-28T07:54:43;99928.11;;;20.82;33.49
37710;BME280;60223;34.854;-92.408;2023-02-28T07:57:09;99920.55;;;20.38;33.35
37710;BME280;60223;34.854;-92.408;2023-02-28T07:59:34;99918.50;;;20.70;33.18
37710;BME280;60223;34.854;-92.408;2023-02-28T08:02:00;99920.76;;;20.60;33.37
37710;BME280;60223;34.854;-92.408;2023-02-28T08:04:26;99927.72;;;20.46;33.50
37710;BME280;60223;34.854;-92.408;2023-02-28T08:06:53;99929.77;;;20.89;33.33
37710;BME280;60223;34.854;-92.408;2023-02-28T08:09:17;99927.00;;;20.34;33.58
37710;BME280;60223;34.854;-92.408;2023-02-28T08:11:42;99921.64;;;20.59;33.62
37710;BME280;60223;34.854;-92.408;2023-02-28T08:14:08;99916.66;;;20.63;33.47
37710;BME280;60223;34.854;-92.408;2023-02-28T08:16:33;99915.92;;;20.27;33.73
37710;BME280;60223;34.854;-92.408;2023-02-28T08:19:00;99915.85;;;20.48;33.64
37710;BME280;60223;34.854;-92.408;2023-02-28T08:21:26;99914.57;;;20.42;33.83
37710;BME280;60223;34.854;-92.408;2023-02-28T08:23:51;99910.55;;;20.49;33.94
37710;BME280;60223;34.854;-92.408;2023-02-28T08:26:17;99907.20;;;20.19;33.68
37710;BME280;60223;34.854;-92.408;2023-02-28T08:28:39;99907.59;;;20.50;33.62
37710;BME280;60223;34.854;-92.408;2023-02-28T08:38:24;99912.20;;;20.01;34.09
37710;BME280;60223;34.854;-92.408;2023-02-28T08:43:16;99903.18;;;20.16;33.94
37710;BME280;60223;34.854;-92.408;2023-02-28T08:45:41;99904.76;;;20.09;33.97
37710;BME280;60223;34.854;-92.408;2023-02-28T08:48:08;99906.67;;;19.70;34.10
37710;BME280;60223;34.854;-92.408;2023-02-28T08:50:33;99909.09;;;20.16;34.16
37710;BME280;60223;34.854;-92.408;2023-02-28T08:52:59;99916.30;;;19.94;34.22
37710;BME280;60223;34.854;-92.408;2023-02-28T08:55:25;99920.69;;;20.01;34.23
37710;BME280;60223;34.854;-92.408;2023-02-28T08:57:49;99914.99;;;19.82;34.43
37710;BME280;60223;34.854;-92.408;2023-02-28T09:00:17;99914.66;;;20.15;34.00
37710;BME280;60223;34.854;-92.408;2023-02-28T09:02:42;99913.35;;;19.94;34.26
37710;BME280;60223;34.854;-92.408;2023-02-28T09:05:09;99912.13;;;19.80;34.50
37710;BME280;60223;34.854;-92.408;2023-02-28T09:07:33;99911.62;;;19.87;34.37
37710;BME280;60223;34.854;-92.408;2023-02-28T09:09:58;99912.87;;;19.99;34.13
37710;BME280;60223;34.854;-92.408;2023-02-28T09:12:26;99910.62;;;19.72;34.49
37710;BME280;60223;34.854;-92.408;2023-02-28T09:14:51;99901.84;;;19.92;34.37
37710;BME280;60223;34.854;-92.408;2023-02-28T09:17:16;99899.94;;;19.78;34.46
37710;BME280;60223;34.854;-92.408;2023-02-28T09:19:42;99896.83;;;19.87;34.35
37710;BME280;60223;34.854;-92.408;2023-02-28T09:22:05;99894.59;;;19.75;34.46
37710;BME280;60223;34.854;-92.408;2023-02-28T09:24:33;99894.69;;;19.75;34.46
37710;BME280;60223;34.854;-92.408;2023-02-28T09:26:59;99896.69;;;20.11;34.10
37710;BME280;60223;34.854;-92.408;2023-02-28T09:29:25;99894.86;;;19.95;34.70
37710;BME280;60223;34.854;-92.408;2023-02-28T09:31:50;99893.56;;;19.67;34.48
37710;BME280;60223;34.854;-92.408;2023-02-28T09:34:15;99897.11;;;19.56;34.50
37710;BME280;60223;34.854;-92.408;2023-02-28T09:36:40;99893.60;;;19.60;34.37
37710;BME280;60223;34.854;-92.408;2023-02-28T09:39:08;99890.47;;;19.46;34.73
37710;BME280;60223;34.854;-92.408;2023-02-28T09:41:37;99894.54;;;19.54;34.59
37710;BME280;60223;34.854;-92.408;2023-02-28T09:44:01;99901.71;;;19.46;34.70
37710;BME280;60223;34.854;-92.408;2023-02-28T09:46:32;99908.10;;;19.59;34.42
37710;BME280;60223;34.854;-92.408;2023-02-28T09:48:52;99907.63;;;19.36;34.70
37710;BME280;60223;34.854;-92.408;2023-02-28T09:53:42;99906.34;;;19.64;34.65
37710;BME280;60223;34.854;-92.408;2023-02-28T09:56:13;99907.68;;;19.64;34.64
37710;BME280;60223;34.854;-92.408;2023-02-28T09:58:36;99908.24;;;19.46;34.86
37710;BME280;60223;34.854;-92.408;2023-02-28T10:01:05;99908.26;;;19.27;34.84
37710;BME280;60223;34.854;-92.408;2023-02-28T10:03:32;99910.70;;;19.46;34.59
37710;BME280;60223;34.854;-92.408;2023-02-28T10:05:56;99915.75;;;19.86;34.68
37710;BME280;60223;34.854;-92.408;2023-02-28T10:08:18;99915.67;;;19.40;34.81
37710;BME280;60223;34.854;-92.408;2023-02-28T10:10:44;99919.96;;;19.66;34.72
37710;BME280;60223;34.854;-92.408;2023-02-28T10:13:06;99926.67;;;19.15;35.06
37710;BME280;60223;34.854;-92.408;2023-02-28T10:15:34;99926.16;;;19.41;34.75
37710;BME280;60223;34.854;-92.408;2023-02-28T10:17:58;99930.38;;;19.37;35.02
37710;BME280;60223;34.854;-92.408;2023-02-28T10:20:26;99925.70;;;19.28;34.87
37710;BME280;60223;34.854;-92.408;2023-02-28T10:22:58;99927.32;;;19.12;35.06
37710;BME280;60223;34.854;-92.408;2023-02-28T10:27:42;99928.71;;;19.22;35.19
37710;BME280;60223;34.854;-92.408;2023-02-28T10:30:09;99926.55;;;18.84;35.35
37710;BME280;60223;34.854;-92.408;2023-02-28T10:32:34;99923.77;;;19.26;35.16
37710;BME280;60223;34.854;-92.408;2023-02-28T10:35:06;99924.45;;;19.18;35.23
37710;BME280;60223;34.854;-92.408;2023-02-28T10:37:25;99930.67;;;19.29;35.08
37710;BME280;60223;34.854;-92.408;2023-02-28T10:39:50;99933.35;;;18.75;35.34
37710;BME280;60223;34.854;-92.408;2023-02-28T10:42:24;99934.84;;;19.31;34.97
37710;BME280;60223;34.854;-92.408;2023-02-28T10:44:41;99928.17;;;18.94;35.40
37710;BME280;60223;34.854;-92.408;2023-02-28T10:47:08;99932.70;;;19.09;35.16
37710;BME280;60223;34.854;-92.408;2023-02-28T10:49:33;99944.37;;;19.08;35.11
37710;BME280;60223;34.854;-92.408;2023-02-28T10:51:59;99951.98;;;19.38;34.79
37710;BME280;60223;34.854;-92.408;2023-02-28T10:54:27;99953.57;;;19.02;35.29
37710;BME280;60223;34.854;-92.408;2023-02-28T10:59:24;99956.47;;;18.89;35.30
37710;BME280;60223;34.854;-92.408;2023-02-28T11:01:43;99961.92;;;18.97;35.15
37710;BME280;60223;34.854;-92.408;2023-02-28T11:06:34;99965.50;;;19.15;35.04
37710;BME280;60223;34.854;-92.408;2023-02-28T11:09:02;99959.83;;;18.84;35.29
37710;BME280;60223;34.854;-92.408;2023-02-28T11:11:26;99966.77;;;19.08;35.53
37710;BME280;60223;34.854;-92.408;2023-02-28T11:13:52;99966.63;;;18.87;35.25
37710;BME280;60223;34.854;-92.408;2023-02-28T11:16:17;99976.81;;;18.68;35.44
37710;BME280;60223;34.854;-92.408;2023-02-28T11:18:47;99976.72;;;18.80;35.19
37710;BME280;60223;34.854;-92.408;2023-02-28T11:21:09;99976.76;;;19.18;35.09
37710;BME280;60223;34.854;-92.408;2023-02-28T11:23:34;99979.87;;;18.78;35.18
37710;BME280;60223;34.854;-92.408;2023-02-28T11:26:02;99976.89;;;18.55;35.39
37710;BME280;60223;34.854;-92.408;2023-02-28T11:28:30;99969.85;;;19.15;34.94
37710;BME280;60223;34.854;-92.408;2023-02-28T11:33:27;99979.04;;;18.60;35.30
37710;BME280;60223;34.854;-92.408;2023-02-28T11:35:42;99978.06;;;18.93;35.20
37710;BME280;60223;34.854;-92.408;2023-02-28T11:38:09;99974.82;;;18.34;35.59
37710;BME280;60223;34.854;-92.408;2023-02-28T11:40:43;99974.24;;;18.23;35.78
37710;BME280;60223;34.854;-92.408;2023-02-28T11:43:05;99970.90;;;18.61;35.77
37710;BME280;60223;34.854;-92.408;2023-02-28T11:45:32;99971.91;;;18.49;35.41
37710;BME280;60223;34.854;-92.408;2023-02-28T11:47:54;99972.38;;;18.57;35.60
37710;BME280;60223;34.854;-92.408;2023-02-28T11:50:24;99972.04;;;18.86;35.37
37710;BME280;60223;34.854;-92.408;2023-02-28T11:52:48;99970.87;;;18.43;36.13
37710;BME280;60223;34.854;-92.408;2023-02-28T11:55:14;99972.36;;;17.81;36.51
37710;BME280;60223;34.854;-92.408;2023-02-28T11:57:47;99973.36;;;17.79;36.34
37710;BME280;60223;34.854;-92.408;2023-02-28T12:00:07;99973.98;;;17.70;37.25
37710;BME280;60223;34.854;-92.408;2023-02-28T12:02:28;99974.82;;;17.98;36.69
37710;BME280;60223;34.854;-92.408;2023-02-28T12:04:58;99971.80;;;18.64;35.73
37710;BME280;60223;34.854;-92.408;2023-02-28T12:07:20;99969.59;;;18.36;35.92
37710;BME280;60223;34.854;-92.408;2023-02-28T12:09:51;99970.17;;;18.51;36.04
37710;BME280;60223;34.854;-92.408;2023-02-28T12:12:17;99974.91;;;18.13;36.50
37710;BME280;60223;34.854;-92.408;2023-02-28T12:14:46;99979.87;;;18.65;35.88
37710;BME280;60223;34.854;-92.408;2023-02-28T12:17:06;99984.89;;;19.37;35.34
37710;BME280;60223;34.854;-92.408;2023-02-28T12:19:31;99996.13;;;18.89;35.27
37710;BME280;60223;34.854;-92.408;2023-02-28T12:22:03;100006.64;;;18.30;36.01
37710;BME280;60223;34.854;-92.408;2023-02-28T12:26:42;100013.82;;;18.60;35.91
37710;BME280;60223;34.854;-92.408;2023-02-28T12:29:16;100015.65;;;18.53;35.95
37710;BME280;60223;34.854;-92.408;2023-02-28T12:31:38;100015.91;;;18.63;36.20
37710;BME280;60223;34.854;-92.408;2023-02-28T12:34:04;100006.17;;;19.23;35.20
37710;BME280;60223;34.854;-92.408;2023-02-28T12:36:26;99999.93;;;19.14;35.30
37710;BME280;60223;34.854;-92.408;2023-02-28T12:38:53;100006.21;;;18.45;36.23
37710;BME280;60223;34.854;-92.408;2023-02-28T12:41:18;100010.24;;;18.41;36.50
37710;BME280;60223;34.854;-92.408;2023-02-28T12:43:47;100012.70;;;18.69;36.12
37710;BME280;60223;34.854;-92.408;2023-02-28T12:46:09;100008.59;;;18.68;36.07
37710;BME280;60223;34.854;-92.408;2023-02-28T12:48:37;100011.01;;;18.40;36.53
37710;BME280;60223;34.854;-92.408;2023-02-28T12:50:56;100010.17;;;18.28;36.29
37710;BME280;60223;34.854;-92.408;2023-02-28T12:53:30;100010.04;;;18.46;35.59
37710;BME280;60223;34.854;-92.408;2023-02-28T12:55:53;100004.90;;;18.52;35.26
37710;BME280;60223;34.854;-92.408;2023-02-28T12:58:22;99996.89;;;19.03;35.14
37710;BME280;60223;34.854;-92.408;2023-02-28T13:00:49;99994.69;;;18.38;35.67
37710;BME280;60223;34.854;-92.408;2023-02-28T13:08:18;99986.66;;;18.57;35.86
37710;BME280;60223;34.854;-92.408;2023-02-28T13:12:53;99993.03;;;18.51;36.29
37710;BME280;60223;34.854;-92.408;2023-02-28T13:15:22;100003.09;;;18.20;36.42
37710;BME280;60223;34.854;-92.408;2023-02-28T13:17:43;100007.59;;;18.45;35.53
37710;BME280;60223;34.854;-92.408;2023-02-28T13:22:43;100012.06;;;18.49;35.78
37710;BME280;60223;34.854;-92.408;2023-02-28T13:24:59;100019.41;;;18.24;36.11
37710;BME280;60223;34.854;-92.408;2023-02-28T13:29:51;100015.47;;;18.91;35.87
37710;BME280;60223;34.854;-92.408;2023-02-28T13:32:30;100014.51;;;18.84;35.99
37710;BME280;60223;34.854;-92.408;2023-02-28T13:34:41;100025.04;;;18.67;36.17
37710;BME280;60223;34.854;-92.408;2023-02-28T13:39:46;100028.66;;;18.63;36.29
37710;BME280;60223;34.854;-92.408;2023-02-28T13:42:05;100032.16;;;18.48;36.14
37710;BME280;60223;34.854;-92.408;2023-02-28T13:44:25;100027.84;;;19.03;35.02
37710;BME280;60223;34.854;-92.408;2023-02-28T13:49:24;100026.70;;;18.89;35.00
37710;BME280;60223;34.854;-92.408;2023-02-28T13:51:42;100031.41;;;18.53;35.97